createdAt,value
2019-05-03T00:00:45.060Z,65.60
2019-05-03T00:03:14.437Z,65.60
2019-05-03T00:05:49.155Z,65.40
2019-05-03T00:08:21.754Z,65.30
2019-05-03T00:10:51.782Z,65.90
2019-05-03T00:13:21.866Z,65.40
2019-05-03T00:16:09.373Z,65.90
2019-05-03T00:18:39.785Z,65.80
2019-05-03T00:21:08.967Z,65.90
2019-05-03T00:23:38.286Z,66.10
2019-05-03T00:26:07.628Z,66.30
2019-05-03T00:28:36.847Z,65.70
2019-05-03T00:31:06.070Z,65.90
2019-05-03T00:33:37.494Z,65.70
2019-05-03T00:36:44.024Z,65.30
2019-05-03T00:39:27.203Z,65.10
2019-05-03T00:41:56.477Z,65.00
2019-05-03T00:44:25.689Z,64.90
2019-05-03T00:46:54.873Z,65.30
2019-05-03T00:49:24.128Z,64.90
2019-05-03T00:51:53.388Z,64.90
2019-05-03T00:54:22.678Z,64.90
2019-05-03T00:56:52.356Z,64.90
2019-05-03T00:59:22.134Z,64.90
2019-05-03T01:01:52.869Z,64.80
2019-05-03T01:04:22.319Z,64.90
2019-05-03T01:06:52.666Z,64.90
2019-05-03T01:09:23.472Z,64.90
2019-05-03T01:11:52.735Z,65.00
2019-05-03T01:14:22.540Z,64.70
2019-05-03T01:16:52.784Z,64.90
2019-05-03T01:19:22.718Z,64.90
2019-05-03T01:21:52.129Z,64.90
2019-05-03T01:24:21.817Z,64.50
2019-05-03T01:26:52.572Z,64.70
2019-05-03T01:29:22.778Z,64.70
2019-05-03T01:31:52.798Z,64.50
2019-05-03T01:34:22.319Z,64.60
2019-05-03T01:36:51.951Z,64.40
2019-05-03T01:39:22.205Z,64.20
2019-05-03T01:41:51.907Z,64.00
2019-05-03T01:44:23.325Z,63.80
2019-05-03T01:46:54.783Z,64.70
2019-05-03T01:49:32.083Z,63.90
2019-05-03T01:52:12.800Z,63.90
2019-05-03T01:54:42.715Z,63.60
2019-05-03T01:57:12.081Z,63.70
2019-05-03T01:59:42.641Z,63.90
2019-05-03T02:02:24.674Z,63.70
2019-05-03T02:05:32.073Z,63.50
2019-05-03T02:08:03.673Z,63.60
2019-05-03T02:10:33.010Z,63.30
2019-05-03T02:13:02.277Z,64.40
2019-05-03T02:15:32.698Z,63.60
2019-05-03T02:18:02.640Z,62.90
2019-05-03T02:20:32.483Z,63.00
2019-05-03T02:23:02.739Z,63.00
2019-05-03T02:25:32.471Z,62.70
2019-05-03T02:28:02.116Z,63.10
2019-05-03T02:30:33.248Z,62.80
2019-05-03T02:33:04.148Z,62.90
2019-05-03T02:35:33.794Z,62.90
2019-05-03T02:38:03.709Z,63.10
2019-05-03T02:40:33.815Z,63.40
2019-05-03T02:43:26.414Z,63.90
2019-05-03T02:46:17.628Z,64.00
2019-05-03T02:48:55.751Z,64.00
2019-05-03T02:51:26.123Z,64.10
2019-05-03T02:53:57.315Z,64.20
2019-05-03T02:56:26.812Z,64.00
2019-05-03T02:58:56.280Z,64.00
2019-05-03T03:01:26.491Z,63.80
2019-05-03T03:03:57.170Z,63.70
2019-05-03T03:06:30.520Z,63.80
2019-05-03T03:08:59.969Z,63.80
2019-05-03T03:11:30.824Z,63.60
2019-05-03T03:14:02.216Z,63.50
2019-05-03T03:16:36.235Z,63.60
2019-05-03T03:19:06.705Z,63.20
2019-05-03T03:21:41.174Z,63.00
2019-05-03T03:24:16.376Z,62.20
2019-05-03T03:26:47.213Z,62.40
2019-05-03T03:29:18.114Z,62.30
2019-05-03T03:32:20.450Z,61.80
2019-05-03T03:35:02.669Z,61.30
2019-05-03T03:37:28.172Z,60.30
2019-05-03T03:39:57.563Z,61.10
2019-05-03T03:42:27.978Z,61.00
2019-05-03T03:44:58.103Z,61.30
2019-05-03T03:47:30.305Z,61.00
2019-05-03T03:49:59.862Z,61.40
2019-05-03T03:52:31.711Z,60.80
2019-05-03T03:55:02.776Z,60.40
2019-05-03T03:57:37.171Z,61.30
2019-05-03T04:00:09.373Z,61.70
2019-05-03T04:02:40.029Z,61.10
2019-05-03T04:05:09.506Z,61.10
2019-05-03T04:07:39.690Z,60.50
2019-05-03T04:10:09.260Z,59.80
2019-05-03T04:12:41.735Z,59.60
2019-05-03T04:15:27.263Z,60.60
2019-05-03T04:18:07.268Z,59.40
2019-05-03T04:20:37.630Z,59.10
2019-05-03T04:23:06.830Z,60.20
2019-05-03T04:25:37.090Z,59.50
2019-05-03T04:28:06.403Z,59.00
2019-05-03T04:30:36.571Z,59.20
2019-05-03T04:33:06.353Z,60.60
2019-05-03T04:35:36.410Z,61.10
2019-05-03T04:38:06.467Z,60.20
2019-05-03T04:40:36.107Z,60.20
2019-05-03T04:43:06.038Z,60.10
2019-05-03T04:45:36.660Z,59.90
2019-05-03T04:48:09.494Z,59.00
2019-05-03T04:50:38.703Z,59.80
2019-05-03T04:53:08.147Z,59.80
2019-05-03T04:55:37.377Z,59.80
2019-05-03T04:58:06.600Z,59.70
2019-05-03T05:00:36.209Z,59.50
2019-05-03T05:03:06.160Z,58.50
2019-05-03T05:05:44.838Z,58.20
2019-05-03T05:08:11.484Z,57.70
2019-05-03T05:10:40.657Z,56.80
2019-05-03T05:13:09.874Z,57.30
2019-05-03T05:15:39.190Z,56.20
2019-05-03T05:18:16.879Z,57.70
2019-05-03T05:21:14.990Z,57.70
2019-05-03T05:24:05.685Z,56.20
2019-05-03T05:26:44.636Z,58.00
2019-05-03T05:29:16.201Z,59.00
2019-05-03T05:31:45.379Z,57.80
2019-05-03T05:34:15.353Z,57.50
2019-05-03T05:40:34.742Z,57.40
2019-05-03T05:43:04.946Z,56.60
2019-05-03T05:45:34.968Z,56.50
2019-05-03T05:48:07.924Z,57.00
2019-05-03T05:50:39.682Z,56.30
2019-05-03T05:53:08.947Z,57.10
2019-05-03T05:56:08.000Z,55.80
2019-05-03T05:58:47.736Z,55.80
2019-05-03T06:01:26.324Z,56.00
2019-05-03T06:03:55.440Z,57.00
2019-05-03T06:06:47.816Z,54.70
2019-05-03T06:09:52.014Z,54.30
2019-05-03T06:12:27.023Z,55.80
2019-05-03T06:15:04.656Z,55.00
2019-05-03T06:17:38.003Z,55.40
2019-05-03T06:20:29.244Z,54.30
2019-05-03T06:23:05.207Z,54.60
2019-05-03T06:25:37.858Z,54.00
2019-05-03T06:28:18.261Z,54.20
2019-05-03T06:31:15.547Z,53.80
2019-05-03T06:33:45.056Z,53.80
2019-05-03T06:36:15.258Z,52.40
2019-05-03T06:38:45.808Z,53.50
2019-05-03T06:41:15.161Z,51.80
2019-05-03T06:43:48.523Z,52.20
2019-05-03T06:46:17.884Z,54.10
2019-05-03T06:48:46.392Z,54.10
2019-05-03T06:51:19.872Z,51.20
2019-05-03T06:53:50.400Z,51.80
2019-05-03T06:56:19.387Z,52.60
2019-05-03T06:58:48.093Z,52.70
2019-05-03T07:01:29.912Z,52.80
2019-05-03T07:04:15.122Z,51.70
2019-05-03T07:07:05.231Z,53.30
2019-05-03T07:09:48.259Z,51.60
2019-05-03T07:12:35.311Z,53.80
2019-05-03T07:15:05.235Z,52.60
2019-05-03T07:17:35.032Z,52.30
2019-05-03T07:20:04.746Z,51.90
2019-05-03T07:22:35.224Z,52.00
2019-05-03T07:25:04.669Z,54.00
2019-05-03T07:27:34.997Z,54.30
2019-05-03T07:30:04.924Z,51.80
2019-05-03T07:32:34.810Z,54.60
2019-05-03T07:35:04.543Z,53.70
2019-05-03T07:37:34.887Z,53.30
2019-05-03T07:40:04.787Z,53.60
2019-05-03T07:42:34.677Z,54.20
2019-05-03T07:45:04.951Z,52.30
2019-05-03T07:47:34.887Z,51.60
2019-05-03T07:50:04.989Z,51.20
2019-05-03T07:52:34.888Z,51.20
2019-05-03T07:55:04.684Z,51.90
2019-05-03T07:57:45.179Z,52.20
2019-05-03T08:00:16.768Z,51.50
2019-05-03T08:02:45.879Z,52.60
2019-05-03T08:05:15.539Z,53.60
2019-05-03T08:07:46.245Z,51.80
2019-05-03T08:10:15.591Z,52.50
2019-05-03T08:12:45.227Z,52.10
2019-05-03T08:15:15.701Z,52.00
2019-05-03T08:17:46.568Z,51.90
2019-05-03T08:20:15.677Z,52.10
2019-05-03T08:22:44.850Z,52.00
2019-05-03T08:25:14.661Z,50.60
2019-05-03T08:27:44.589Z,51.10
2019-05-03T08:30:17.492Z,52.90
2019-05-03T08:32:56.027Z,51.30
2019-05-03T08:35:30.884Z,50.00
2019-05-03T08:38:01.178Z,51.40
2019-05-03T08:40:34.983Z,52.60
2019-05-03T08:43:05.204Z,52.30
2019-05-03T08:45:34.758Z,52.40
2019-05-03T08:48:05.518Z,51.40
2019-05-03T08:50:34.940Z,53.20
2019-05-03T08:53:05.073Z,52.10
2019-05-03T08:55:35.198Z,53.40
2019-05-03T08:58:05.193Z,50.50
2019-05-03T09:00:36.647Z,52.30
2019-05-03T09:03:05.782Z,51.50
2019-05-03T09:05:36.011Z,51.10
2019-05-03T09:08:05.754Z,51.20
2019-05-03T09:10:50.208Z,50.30
2019-05-03T09:13:20.773Z,49.80
2019-05-03T09:15:50.691Z,51.10
2019-05-03T09:18:19.819Z,51.80
2019-05-03T09:20:48.983Z,51.30
2019-05-03T09:23:18.176Z,48.50
2019-05-03T09:25:47.393Z,48.40
2019-05-03T09:28:16.601Z,50.40
2019-05-03T09:30:45.764Z,50.50
2019-05-03T09:33:15.376Z,51.20
2019-05-03T09:35:45.745Z,52.00
2019-05-03T09:38:15.213Z,51.60
2019-05-03T09:40:45.425Z,51.00
2019-05-03T09:43:15.143Z,51.80
2019-05-03T09:45:45.692Z,49.40
2019-05-03T09:48:15.236Z,51.50
2019-05-03T09:50:45.191Z,50.10
2019-05-03T09:53:16.652Z,52.40
2019-05-03T09:55:45.958Z,49.70
2019-05-03T09:58:15.444Z,50.00
2019-05-03T10:00:45.138Z,49.40
2019-05-03T10:03:14.254Z,52.60
2019-05-03T10:05:45.686Z,50.50
2019-05-03T10:08:15.764Z,50.70
2019-05-03T10:11:16.563Z,52.10
2019-05-03T10:13:48.323Z,50.50
2019-05-03T10:16:16.701Z,51.00
2019-05-03T10:18:46.182Z,49.80
2019-05-03T10:21:15.410Z,49.20
2019-05-03T10:23:45.252Z,50.20
2019-05-03T10:26:15.100Z,48.30
2019-05-03T10:28:44.555Z,50.40
2019-05-03T10:31:14.698Z,49.40
2019-05-03T10:34:05.561Z,48.70
2019-05-03T10:36:35.637Z,48.60
2019-05-03T10:39:05.924Z,49.40
2019-05-03T10:41:35.180Z,49.20
2019-05-03T10:44:06.021Z,49.90
2019-05-03T10:46:37.419Z,49.30
2019-05-03T10:49:23.969Z,51.20
2019-05-03T10:52:05.828Z,50.30
2019-05-03T10:54:35.969Z,49.60
2019-05-03T10:57:11.307Z,47.90
2019-05-03T10:59:40.471Z,50.40
2019-05-03T11:02:21.096Z,52.10
2019-05-03T11:04:50.259Z,51.30
2019-05-03T11:07:19.440Z,52.90
2019-05-03T11:09:52.392Z,52.60
2019-05-03T11:12:19.408Z,51.50
2019-05-03T11:14:48.596Z,51.50
2019-05-03T11:17:17.670Z,52.10
2019-05-03T11:19:46.849Z,52.00
2019-05-03T11:22:15.996Z,52.00
2019-05-03T11:24:45.464Z,53.00
2019-05-03T11:27:19.492Z,52.80
2019-05-03T11:29:48.580Z,53.00
2019-05-03T11:32:37.076Z,53.60
2019-05-03T11:35:26.407Z,54.00
2019-05-03T11:38:10.503Z,53.10
2019-05-03T11:40:39.595Z,53.00
2019-05-03T11:43:08.785Z,52.10
2019-05-03T11:45:37.943Z,52.20
2019-05-03T11:48:07.116Z,52.10
2019-05-03T11:50:36.311Z,53.20
2019-05-03T11:53:05.484Z,52.90
2019-05-03T11:55:35.206Z,53.00
2019-05-03T11:58:18.690Z,53.60
2019-05-03T12:00:50.995Z,54.30
2019-05-03T12:03:36.907Z,55.00
2019-05-03T12:06:06.097Z,55.10
2019-05-03T12:08:35.901Z,54.50
2019-05-03T12:11:05.749Z,54.90
2019-05-03T12:13:35.115Z,53.50
2019-05-03T12:16:17.220Z,52.70
2019-05-03T12:18:49.138Z,53.30
2019-05-03T12:21:09.709Z,54.70
2019-05-03T12:23:39.745Z,54.10
2019-05-03T12:26:13.040Z,54.30
2019-05-03T12:28:40.268Z,53.70
2019-05-03T12:31:24.392Z,53.40
2019-05-03T12:33:40.459Z,54.60
2019-05-03T12:36:09.642Z,53.80
2019-05-03T12:38:38.789Z,54.00
2019-05-03T12:41:07.991Z,52.70
2019-05-03T12:43:37.115Z,53.40
2019-05-03T12:46:07.584Z,53.60
2019-05-03T12:48:36.695Z,53.70
2019-05-03T12:51:07.128Z,53.60
2019-05-03T12:53:36.615Z,53.20
2019-05-03T12:56:11.525Z,52.60
2019-05-03T12:58:49.409Z,52.00
2019-05-03T13:01:40.602Z,53.00
2019-05-03T13:04:07.731Z,53.50
2019-05-03T13:06:39.931Z,52.10
2019-05-03T13:09:11.021Z,53.80
2019-05-03T13:11:52.900Z,54.00
2019-05-03T13:14:12.692Z,54.20
2019-05-03T13:16:44.571Z,55.00
2019-05-03T13:19:12.664Z,55.40
2019-05-03T13:21:41.874Z,56.10
2019-05-03T13:24:22.490Z,55.00
2019-05-03T13:26:41.932Z,55.70
2019-05-03T13:29:11.165Z,55.40
2019-05-03T13:31:40.363Z,55.60
2019-05-03T13:34:11.737Z,55.80
2019-05-03T13:36:40.863Z,54.50
2019-05-03T13:39:14.546Z,54.30
2019-05-03T13:41:45.355Z,53.70
2019-05-03T13:47:39.291Z,54.10
2019-05-03T13:50:27.003Z,54.20
2019-05-03T13:52:56.105Z,54.80
2019-05-03T13:55:25.336Z,55.40
2019-05-03T13:57:54.930Z,55.30
2019-05-03T14:00:24.708Z,54.50
2019-05-03T14:02:56.211Z,54.00
2019-05-03T14:05:24.792Z,53.10
2019-05-03T14:07:56.181Z,52.80
2019-05-03T14:10:25.081Z,54.10
2019-05-03T14:12:54.873Z,52.50
2019-05-03T14:15:25.488Z,52.10
2019-05-03T14:17:54.883Z,52.00
2019-05-03T14:20:46.948Z,51.80
2019-05-03T14:23:16.090Z,52.90
2019-05-03T14:25:45.179Z,53.50
2019-05-03T14:28:14.688Z,53.60
2019-05-03T14:30:45.350Z,53.90
2019-05-03T14:33:14.750Z,54.10
2019-05-03T14:35:45.228Z,53.90
2019-05-03T14:38:15.166Z,54.60
2019-05-03T14:40:47.374Z,54.90
2019-05-03T14:43:16.746Z,54.60
2019-05-03T14:45:45.911Z,52.90
2019-05-03T14:48:15.288Z,53.60
2019-05-03T14:50:45.561Z,52.90
2019-05-03T14:53:14.943Z,53.00
2019-05-03T14:55:49.452Z,54.00
2019-05-03T14:58:37.676Z,54.50
2019-05-03T15:01:15.367Z,54.90
2019-05-03T15:03:44.063Z,53.50
2019-05-03T15:06:15.380Z,53.00
2019-05-03T15:08:43.995Z,52.60
2019-05-03T15:11:14.890Z,52.70
2019-05-03T15:13:45.586Z,53.90
2019-05-03T15:16:17.179Z,53.40
2019-05-03T15:18:46.324Z,53.00
2019-05-03T15:21:15.489Z,53.10
2019-05-03T15:23:45.324Z,54.00
2019-05-03T15:26:14.697Z,54.10
2019-05-03T15:28:44.883Z,54.00
2019-05-03T15:31:14.257Z,54.10
2019-05-03T15:33:44.899Z,54.50
2019-05-03T15:36:15.403Z,54.50
2019-05-03T15:38:44.847Z,55.00
2019-05-03T15:41:14.711Z,54.80
2019-05-03T15:44:06.495Z,54.60
2019-05-03T15:46:45.670Z,54.30
2019-05-03T15:49:28.007Z,54.70
2019-05-03T15:51:57.175Z,54.40
2019-05-03T15:54:26.424Z,55.10
2019-05-03T15:56:55.705Z,54.60
2019-05-03T15:59:24.911Z,55.20
2019-05-03T16:01:55.308Z,55.20
2019-05-03T16:04:25.105Z,55.60
2019-05-03T16:06:56.105Z,55.50
2019-05-03T16:09:25.209Z,56.10
2019-05-03T16:11:55.562Z,54.70
2019-05-03T16:14:24.878Z,54.50
2019-05-03T16:16:54.728Z,54.30
2019-05-03T16:19:24.373Z,54.80
2019-05-03T16:21:54.526Z,54.60
2019-05-03T16:24:24.956Z,54.80
2019-05-03T16:27:12.004Z,54.90
2019-05-03T16:29:41.193Z,54.20
2019-05-03T16:32:10.605Z,54.40
2019-05-03T16:34:39.806Z,54.50
2019-05-03T16:37:08.982Z,54.00
2019-05-03T16:39:38.174Z,54.00
2019-05-03T16:42:07.314Z,53.40
2019-05-03T16:44:36.546Z,52.90
2019-05-03T16:47:07.304Z,54.20
2019-05-03T16:49:36.557Z,53.90
2019-05-03T16:52:05.756Z,54.30
2019-05-03T16:54:35.039Z,54.10
2019-05-03T16:57:05.779Z,53.80
2019-05-03T16:59:35.320Z,53.90
2019-05-03T17:02:05.747Z,54.80
2019-05-03T17:04:42.830Z,54.10
2019-05-03T17:07:41.141Z,53.80
2019-05-03T17:10:29.517Z,54.80
2019-05-03T17:13:01.485Z,54.50
2019-05-03T17:15:32.802Z,55.10
2019-05-03T17:18:04.376Z,54.70
2019-05-03T17:20:34.863Z,55.20
2019-05-03T17:23:04.481Z,55.30
2019-05-03T17:25:35.225Z,55.70
2019-05-03T17:28:05.087Z,55.70
2019-05-03T17:30:37.312Z,56.00
2019-05-03T17:33:05.360Z,56.20
2019-05-03T17:35:36.812Z,56.20
2019-05-03T17:38:06.047Z,56.20
2019-05-03T17:41:00.314Z,56.90
2019-05-03T17:43:44.858Z,57.40
2019-05-03T17:46:14.987Z,57.50
2019-05-03T17:48:45.318Z,57.80
2019-05-03T17:51:35.065Z,57.90
2019-05-03T17:54:22.355Z,57.80
2019-05-03T17:57:00.423Z,59.50
2019-05-03T17:59:48.634Z,58.40
2019-05-03T18:02:45.098Z,58.50
2019-05-03T18:05:22.645Z,58.30
2019-05-03T18:08:03.679Z,58.30
2019-05-03T18:10:33.823Z,58.30
2019-05-03T18:13:04.702Z,59.00
2019-05-03T18:15:34.543Z,58.80
2019-05-03T18:18:06.051Z,59.20
2019-05-03T18:20:36.448Z,58.90
2019-05-03T18:23:07.690Z,58.90
2019-05-03T18:25:39.134Z,58.60
2019-05-03T18:28:09.648Z,58.70
2019-05-03T18:30:41.220Z,60.00
2019-05-03T18:33:10.559Z,58.40
2019-05-03T18:35:41.207Z,58.80
2019-05-03T18:38:10.445Z,59.30
2019-05-03T18:40:39.738Z,58.90
2019-05-03T18:43:15.538Z,59.20
2019-05-03T18:46:05.884Z,59.30
2019-05-03T18:48:39.712Z,58.90
2019-05-03T18:51:11.687Z,59.00
2019-05-03T18:53:40.913Z,59.00
2019-05-03T18:56:10.207Z,59.40
2019-05-03T18:58:39.638Z,60.20
2019-05-03T19:01:09.447Z,60.20
2019-05-03T19:03:39.155Z,61.30
2019-05-03T19:06:10.196Z,60.90
2019-05-03T19:08:57.373Z,61.00
2019-05-03T19:11:32.619Z,60.50
2019-05-03T19:14:05.090Z,59.70
2019-05-03T19:16:41.995Z,60.80
2019-05-03T19:19:11.769Z,60.10
2019-05-03T19:21:41.051Z,60.20
2019-05-03T19:24:10.205Z,61.00
2019-05-03T19:26:39.370Z,60.30
2019-05-03T19:29:09.658Z,59.70
2019-05-03T19:31:39.854Z,61.00
2019-05-03T19:34:09.164Z,60.80
2019-05-03T19:36:38.665Z,61.60
2019-05-03T19:39:08.559Z,62.40
2019-05-03T19:41:38.292Z,63.10
2019-05-03T19:44:07.852Z,63.80
2019-05-03T19:46:38.221Z,63.10
2019-05-03T19:49:09.502Z,62.40
2019-05-03T19:51:38.625Z,64.60
2019-05-03T19:54:07.877Z,63.90
2019-05-03T19:56:37.098Z,63.50
2019-05-03T19:59:09.298Z,63.60
2019-05-03T20:02:04.532Z,62.10
2019-05-03T20:04:58.409Z,63.20
2019-05-03T20:08:02.216Z,64.10
2019-05-03T20:10:32.493Z,63.90
2019-05-03T20:13:04.606Z,63.90
2019-05-03T20:15:37.500Z,63.30
2019-05-03T20:18:07.159Z,64.80
2019-05-03T20:20:37.389Z,64.90
2019-05-03T20:23:06.848Z,63.40
2019-05-03T20:25:36.427Z,63.90
2019-05-03T20:28:06.504Z,62.90
2019-05-03T20:30:36.890Z,63.20
2019-05-03T20:33:08.423Z,63.10
2019-05-03T20:35:41.819Z,64.20
2019-05-03T20:38:11.074Z,65.00
2019-05-03T20:40:40.511Z,64.30
2019-05-03T20:43:37.724Z,64.80
2019-05-03T20:46:10.692Z,62.50
2019-05-03T20:48:41.708Z,63.40
2019-05-03T20:51:12.280Z,62.80
2019-05-03T20:53:41.600Z,64.00
2019-05-03T20:56:10.780Z,62.60
2019-05-03T20:58:39.988Z,63.30
2019-05-03T21:01:09.723Z,62.20
2019-05-03T21:03:38.939Z,63.60
2019-05-03T21:06:09.930Z,62.40
2019-05-03T21:08:49.839Z,62.40
2019-05-03T21:11:11.053Z,63.70
2019-05-03T21:13:42.534Z,62.20
2019-05-03T21:16:35.383Z,63.90
2019-05-03T21:19:15.771Z,63.90
2019-05-03T21:21:51.424Z,64.30
2019-05-03T21:24:40.389Z,64.00
2019-05-03T21:27:09.615Z,63.90
2019-05-03T21:29:55.166Z,64.60
2019-05-03T21:32:25.263Z,64.10
2019-05-03T21:34:55.740Z,62.50
2019-05-03T21:37:25.241Z,64.00
2019-05-03T21:39:54.794Z,64.60
2019-05-03T21:42:24.138Z,63.90
2019-05-03T21:44:55.596Z,64.60
2019-05-03T21:47:39.876Z,64.40
2019-05-03T21:50:11.588Z,63.40
2019-05-03T21:52:40.791Z,63.40
2019-05-03T21:55:09.991Z,64.30
2019-05-03T21:57:40.622Z,64.40
2019-05-03T22:00:10.837Z,64.40
2019-05-03T22:02:40.148Z,62.60
2019-05-03T22:05:10.905Z,62.60
2019-05-03T22:07:40.084Z,61.90
2019-05-03T22:10:09.887Z,64.10
2019-05-03T22:12:38.993Z,62.60
2019-05-03T22:15:26.450Z,62.70
2019-05-03T22:18:05.465Z,63.40
2019-05-03T22:20:40.228Z,63.20
2019-05-03T22:23:16.709Z,62.60
2019-05-03T22:25:45.939Z,62.80
2019-05-03T22:28:15.530Z,61.90
2019-05-03T22:30:45.352Z,62.40
2019-05-03T22:33:17.682Z,62.60
2019-05-03T22:35:46.814Z,62.10
2019-05-03T22:38:17.556Z,62.40
2019-05-03T22:40:47.792Z,62.30
2019-05-03T22:43:17.273Z,62.40
2019-05-03T22:45:51.132Z,63.60
2019-05-03T22:48:22.055Z,63.40
2019-05-03T22:50:51.516Z,64.50
2019-05-03T22:53:20.624Z,64.90
2019-05-03T22:55:52.087Z,63.00
2019-05-03T22:58:21.296Z,62.20
2019-05-03T23:00:50.413Z,63.20
2019-05-03T23:03:19.614Z,62.00
2019-05-03T23:05:50.308Z,62.10
2019-05-03T23:08:19.796Z,63.10
2019-05-03T23:10:49.700Z,63.30
2019-05-03T23:13:20.235Z,61.80
2019-05-03T23:15:52.212Z,61.70
2019-05-03T23:18:24.715Z,61.80
2019-05-03T23:21:00.379Z,62.10
2019-05-03T23:23:52.372Z,62.20
2019-05-03T23:26:25.408Z,61.70
2019-05-03T23:28:56.491Z,61.80
2019-05-03T23:31:26.043Z,62.10
2019-05-03T23:33:55.984Z,61.80
2019-05-03T23:36:36.157Z,61.90
2019-05-03T23:39:05.772Z,62.70
2019-05-03T23:41:35.633Z,62.30
2019-05-03T23:44:09.716Z,64.50
2019-05-03T23:46:45.481Z,63.20
2019-05-03T23:49:14.739Z,63.80
2019-05-03T23:51:55.096Z,64.30
2019-05-03T23:54:26.636Z,64.80
2019-05-03T23:56:56.610Z,64.50
2019-05-03T23:59:26.548Z,64.00
